sensor_id;sensor_type;location;lat;lon;timestamp;pressure;altitude;pressure_sealevel;temperature;humidity
10720;BME280;5411;58.386;15.560;2023-07-31T00:00:56;99313.47;;;16.69;88.19
10720;BME280;5411;58.386;15.560;2023-07-31T00:03:25;99307.00;;;16.70;87.93
10720;BME280;5411;58.386;15.560;2023-07-31T00:05:54;99312.94;;;16.72;88.20
10720;BME280;5411;58.386;15.560;2023-07-31T00:08:23;99301.34;;;16.72;88.47
10720;BME280;5411;58.386;15.560;2023-07-31T00:10:54;99301.88;;;16.74;88.08
10720;BME280;5411;58.386;15.560;2023-07-31T00:13:24;99307.28;;;16.74;88.41
10720;BME280;5411;58.386;15.560;2023-07-31T00:15:52;99312.41;;;16.76;88.69
10720;BME280;5411;58.386;15.560;2023-07-31T00:18:20;99313.22;;;16.76;89.20
10720;BME280;5411;58.386;15.560;2023-07-31T00:20:51;99306.72;;;16.72;90.11
10720;BME280;5411;58.386;15.560;2023-07-31T00:23:20;99299.69;;;16.61;90.31
10720;BME280;5411;58.386;15.560;2023-07-31T00:25:49;99308.56;;;16.51;91.29
10720;BME280;5411;58.386;15.560;2023-07-31T00:28:18;99311.25;;;16.46;92.13
10720;BME280;5411;58.386;15.560;2023-07-31T00:30:46;99304.22;;;16.40;93.97
10720;BME280;5411;58.386;15.560;2023-07-31T00:33:14;99304.47;;;16.38;93.01
10720;BME280;5411;58.386;15.560;2023-07-31T00:35:45;99316.09;;;16.39;93.73
10720;BME280;5411;58.386;15.560;2023-07-31T00:38:15;99315.03;;;16.35;94.70
10720;BME280;5411;58.386;15.560;2023-07-31T00:40:43;99308.28;;;16.37;94.72
10720;BME280;5411;58.386;15.560;2023-07-31T00:43:14;99309.63;;;16.35;95.21
10720;BME280;5411;58.386;15.560;2023-07-31T00:45:42;99316.06;;;16.29;96.28
10720;BME280;5411;58.386;15.560;2023-07-31T00:48:11;99325.53;;;16.31;97.32
10720;BME280;5411;58.386;15.560;2023-07-31T00:50:44;99333.38;;;16.33;98.98
10720;BME280;5411;58.386;15.560;2023-07-31T00:53:16;99330.16;;;16.36;99.27
10720;BME280;5411;58.386;15.560;2023-07-31T00:55:44;99331.22;;;16.40;99.00
10720;BME280;5411;58.386;15.560;2023-07-31T00:58:13;99338.75;;;16.38;99.90
10720;BME280;5411;58.386;15.560;2023-07-31T01:00:41;99346.88;;;16.43;99.70
10720;BME280;5411;58.386;15.560;2023-07-31T01:03:11;99340.41;;;16.44;99.41
10720;BME280;5411;58.386;15.560;2023-07-31T01:05:55;99350.41;;;16.44;100.00
10720;BME280;5411;58.386;15.560;2023-07-31T01:08:37;99342.00;;;16.40;100.00
10720;BME280;5411;58.386;15.560;2023-07-31T01:11:15;99339.31;;;16.35;100.00
10720;BME280;5411;58.386;15.560;2023-07-31T01:13:44;99328.75;;;16.23;100.00
10720;BME280;5411;58.386;15.560;2023-07-31T01:16:13;99329.47;;;16.03;100.00
10720;BME280;5411;58.386;15.560;2023-07-31T01:18:42;99325.94;;;15.93;100.00
10720;BME280;5411;58.386;15.560;2023-07-31T01:21:21;99330.47;;;15.82;100.00
10720;BME280;5411;58.386;15.560;2023-07-31T01:26:47;99323.19;;;15.83;100.00
10720;BME280;5411;58.386;15.560;2023-07-31T01:29:23;99325.34;;;15.81;100.00
10720;BME280;5411;58.386;15.560;2023-07-31T01:31:53;99327.47;;;15.79;100.00
10720;BME280;5411;58.386;15.560;2023-07-31T01:34:23;99328.56;;;15.78;100.00
10720;BME280;5411;58.386;15.560;2023-07-31T01:36:52;99324.78;;;15.79;100.00
10720;BME280;5411;58.386;15.560;2023-07-31T01:39:21;99328.31;;;15.79;100.00
10720;BME280;5411;58.386;15.560;2023-07-31T01:41:51;99323.72;;;15.80;100.00
10720;BME280;5411;58.386;15.560;2023-07-31T01:44:19;99314.25;;;15.77;100.00
10720;BME280;5411;58.386;15.560;2023-07-31T01:46:48;99318.31;;;15.80;100.00
10720;BME280;5411;58.386;15.560;2023-07-31T01:49:16;99309.97;;;15.81;100.00
10720;BME280;5411;58.386;15.560;2023-07-31T01:51:46;99307.28;;;15.81;100.00
10720;BME280;5411;58.386;15.560;2023-07-31T01:54:15;99301.63;;;15.83;100.00
10720;BME280;5411;58.386;15.560;2023-07-31T01:56:43;99304.31;;;15.83;100.00
10720;BME280;5411;58.386;15.560;2023-07-31T01:59:13;99298.66;;;15.84;100.00
10720;BME280;5411;58.386;15.560;2023-07-31T02:01:42;99297.56;;;15.85;100.00
10720;BME280;5411;58.386;15.560;2023-07-31T02:04:10;99294.03;;;15.85;100.00
10720;BME280;5411;58.386;15.560;2023-07-31T02:06:39;99304.56;;;15.86;100.00
10720;BME280;5411;58.386;15.560;2023-07-31T02:09:07;99294.59;;;15.87;100.00
10720;BME280;5411;58.386;15.560;2023-07-31T02:11:38;99294.59;;;15.87;100.00
10720;BME280;5411;58.386;15.560;2023-07-31T02:14:08;99294.34;;;15.88;100.00
10720;BME280;5411;58.386;15.560;2023-07-31T02:16:38;99287.06;;;15.84;100.00
10720;BME280;5411;58.386;15.560;2023-07-31T02:19:07;99298.38;;;15.86;100.00
10720;BME280;5411;58.386;15.560;2023-07-31T02:21:38;99286.75;;;15.85;100.00
10720;BME280;5411;58.386;15.560;2023-07-31T02:24:06;99295.97;;;15.84;100.00
10720;BME280;5411;58.386;15.560;2023-07-31T02:26:35;99283.25;;;15.80;100.00
10720;BME280;5411;58.386;15.560;2023-07-31T02:29:04;99293.22;;;15.79;100.00
10720;BME280;5411;58.386;15.560;2023-07-31T02:31:35;99289.16;;;15.77;100.00
10720;BME280;5411;58.386;15.560;2023-07-31T02:34:04;99285.09;;;15.74;100.00
10720;BME280;5411;58.386;15.560;2023-07-31T02:36:33;99291.56;;;15.73;100.00
10720;BME280;5411;58.386;15.560;2023-07-31T02:39:02;99287.00;;;15.68;100.00
10720;BME280;5411;58.386;15.560;2023-07-31T02:41:31;99283.75;;;15.66;100.00
10720;BME280;5411;58.386;15.560;2023-07-31T02:43:59;99288.56;;;15.64;100.00
10720;BME280;5411;58.386;15.560;2023-07-31T02:46:27;99288.53;;;15.59;100.00
10720;BME280;5411;58.386;15.560;2023-07-31T02:48:56;99292.03;;;15.55;100.00
10720;BME280;5411;58.386;15.560;2023-07-31T02:51:27;99293.03;;;15.49;100.00
10720;BME280;5411;58.386;15.560;2023-07-31T02:53:55;99293.03;;;15.49;100.00
10720;BME280;5411;58.386;15.560;2023-07-31T02:56:23;99290.03;;;15.45;100.00
10720;BME280;5411;58.386;15.560;2023-07-31T02:58:52;99279.81;;;15.42;100.00
10720;BME280;5411;58.386;15.560;2023-07-31T03:01:20;99282.75;;;15.41;100.00
10720;BME280;5411;58.386;15.560;2023-07-31T03:03:48;99275.75;;;15.40;100.00
10720;BME280;5411;58.386;15.560;2023-07-31T03:06:17;99280.88;;;15.41;100.00
10720;BME280;5411;58.386;15.560;2023-07-31T03:08:48;99277.63;;;15.39;100.00
10720;BME280;5411;58.386;15.560;2023-07-31T03:11:16;99269.00;;;15.37;100.00
10720;BME280;5411;58.386;15.560;2023-07-31T03:13:45;99268.44;;;15.35;100.00
10720;BME280;5411;58.386;15.560;2023-07-31T03:16:13;99266.81;;;15.34;100.00
10720;BME280;5411;58.386;15.560;2023-07-31T03:18:46;99263.28;;;15.33;100.00
10720;BME280;5411;58.386;15.560;2023-07-31T03:21:14;99253.56;;;15.27;100.00
10720;BME280;5411;58.386;15.560;2023-07-31T03:23:43;99251.41;;;15.24;100.00
10720;BME280;5411;58.386;15.560;2023-07-31T03:26:15;99252.72;;;15.22;100.00
10720;BME280;5411;58.386;15.560;2023-07-31T03:28:43;99254.84;;;15.15;100.00
10720;BME280;5411;58.386;15.560;2023-07-31T03:31:12;99254.53;;;15.11;100.00
10720;BME280;5411;58.386;15.560;2023-07-31T03:33:40;99251.56;;;15.08;100.00
10720;BME280;5411;58.386;15.560;2023-07-31T03:36:09;99247.78;;;15.04;100.00
10720;BME280;5411;58.386;15.560;2023-07-31T03:38:37;99256.38;;;15.06;100.00
10720;BME280;5411;58.386;15.560;2023-07-31T03:41:06;99248.84;;;15.03;100.00
10720;BME280;5411;58.386;15.560;2023-07-31T03:43:40;99253.66;;;15.01;100.00
10720;BME280;5411;58.386;15.560;2023-07-31T03:46:08;99244.22;;;14.98;100.00
10720;BME280;5411;58.386;15.560;2023-07-31T03:48:37;99247.16;;;14.96;100.00
10720;BME280;5411;58.386;15.560;2023-07-31T03:51:05;99242.03;;;14.95;100.00
10720;BME280;5411;58.386;15.560;2023-07-31T03:53:34;99230.72;;;14.93;100.00
10720;BME280;5411;58.386;15.560;2023-07-31T03:56:03;99230.97;;;14.91;100.00
10720;BME280;5411;58.386;15.560;2023-07-31T03:58:31;99237.44;;;14.90;100.00
10720;BME280;5411;58.386;15.560;2023-07-31T04:01:01;99236.63;;;14.90;100.00
10720;BME280;5411;58.386;15.560;2023-07-31T04:03:30;99236.88;;;14.88;100.00
10720;BME280;5411;58.386;15.560;2023-07-31T04:05:59;99235.25;;;14.87;100.00
10720;BME280;5411;58.386;15.560;2023-07-31T04:08:27;99236.34;;;14.86;100.00
10720;BME280;5411;58.386;15.560;2023-07-31T04:10:56;99245.47;;;14.85;100.00
10720;BME280;5411;58.386;15.560;2023-07-31T04:13:24;99250.09;;;14.90;100.00
10720;BME280;5411;58.386;15.560;2023-07-31T04:15:54;99249.56;;;14.93;100.00
10720;BME280;5411;58.386;15.560;2023-07-31T04:18:24;99256.88;;;14.97;100.00
10720;BME280;5411;58.386;15.560;2023-07-31T04:20:53;99245.91;;;15.04;100.00
10720;BME280;5411;58.386;15.560;2023-07-31T04:23:21;99244.59;;;15.12;100.00
10720;BME280;5411;58.386;15.560;2023-07-31T04:25:50;99242.19;;;15.15;100.00
10720;BME280;5411;58.386;15.560;2023-07-31T04:28:19;99250.03;;;15.22;100.00
10720;BME280;5411;58.386;15.560;2023-07-31T04:30:48;99248.69;;;15.24;100.00
10720;BME280;5411;58.386;15.560;2023-07-31T04:33:17;99248.19;;;15.32;100.00
10720;BME280;5411;58.386;15.560;2023-07-31T04:35:50;99248.78;;;15.40;100.00
10720;BME280;5411;58.386;15.560;2023-07-31T04:38:20;99247.47;;;15.47;100.00
10720;BME280;5411;58.386;15.560;2023-07-31T04:40:51;99252.41;;;15.55;100.00
10720;BME280;5411;58.386;15.560;2023-07-31T04:43:19;99245.94;;;15.61;100.00
10720;BME280;5411;58.386;15.560;2023-07-31T04:45:48;99254.63;;;15.68;100.00
10720;BME280;5411;58.386;15.560;2023-07-31T04:48:17;99255.72;;;15.78;100.00
10720;BME280;5411;58.386;15.560;2023-07-31T04:50:46;99245.50;;;15.85;100.00
10720;BME280;5411;58.386;15.560;2023-07-31T04:53:16;99250.91;;;15.90;100.00
10720;BME280;5411;58.386;15.560;2023-07-31T04:55:44;99252.56;;;16.01;100.00
10720;BME280;5411;58.386;15.560;2023-07-31T04:58:13;99256.38;;;16.05;100.00
10720;BME280;5411;58.386;15.560;2023-07-31T05:00:41;99250.19;;;16.10;100.00
10720;BME280;5411;58.386;15.560;2023-07-31T05:03:10;99250.16;;;16.15;100.00
10720;BME280;5411;58.386;15.560;2023-07-31T05:05:38;99245.59;;;16.20;100.00
10720;BME280;5411;58.386;15.560;2023-07-31T05:08:07;99252.63;;;16.26;100.00
10720;BME280;5411;58.386;15.560;2023-07-31T05:10:37;99244.28;;;16.33;100.00
10720;BME280;5411;58.386;15.560;2023-07-31T05:13:06;99247.25;;;16.42;100.00
10720;BME280;5411;58.386;15.560;2023-07-31T05:15:34;99251.84;;;16.46;100.00
10720;BME280;5411;58.386;15.560;2023-07-31T05:18:03;99254.28;;;16.53;100.00
10720;BME280;5411;58.386;15.560;2023-07-31T05:20:31;99251.31;;;16.59;100.00
10720;BME280;5411;58.386;15.560;2023-07-31T05:23:04;99264.88;;;16.64;100.00
10720;BME280;5411;58.386;15.560;2023-07-31T05:25:33;99262.97;;;16.70;100.00
10720;BME280;5411;58.386;15.560;2023-07-31T05:28:03;99262.97;;;16.75;100.00
10720;BME280;5411;58.386;15.560;2023-07-31T05:30:32;99259.19;;;16.81;100.00
10720;BME280;5411;58.386;15.560;2023-07-31T05:33:01;99261.34;;;16.89;100.00
10720;BME280;5411;58.386;15.560;2023-07-31T05:35:29;99266.47;;;16.96;100.00
10720;BME280;5411;58.386;15.560;2023-07-31T05:37:58;99267.56;;;17.00;100.00
10720;BME280;5411;58.386;15.560;2023-07-31T05:40:26;99259.72;;;17.03;100.00
10720;BME280;5411;58.386;15.560;2023-07-31T05:42:55;99253.22;;;17.09;100.00
10720;BME280;5411;58.386;15.560;2023-07-31T05:45:25;99252.38;;;17.19;100.00
10720;BME280;5411;58.386;15.560;2023-07-31T05:47:53;99249.94;;;17.28;100.00
10720;BME280;5411;58.386;15.560;2023-07-31T05:50:22;99255.06;;;17.39;100.00
10720;BME280;5411;58.386;15.560;2023-07-31T05:52:50;99250.16;;;17.46;100.00
10720;BME280;5411;58.386;15.560;2023-07-31T05:55:19;99248.25;;;17.52;100.00
10720;BME280;5411;58.386;15.560;2023-07-31T05:57:47;99250.09;;;17.62;100.00
10720;BME280;5411;58.386;15.560;2023-07-31T06:00:16;99260.63;;;17.73;100.00
10720;BME280;5411;58.386;15.560;2023-07-31T06:02:48;99265.44;;;17.87;100.00
10720;BME280;5411;58.386;15.560;2023-07-31T06:05:17;99265.94;;;17.99;100.00
10720;BME280;5411;58.386;15.560;2023-07-31T06:07:45;99262.88;;;18.15;100.00
10720;BME280;5411;58.386;15.560;2023-07-31T06:10:14;99263.31;;;18.33;100.00
10720;BME280;5411;58.386;15.560;2023-07-31T06:12:43;99257.03;;;18.42;100.00
10720;BME280;5411;58.386;15.560;2023-07-31T06:15:11;99264.50;;;18.56;100.00
10720;BME280;5411;58.386;15.560;2023-07-31T06:17:39;99262.50;;;18.76;100.00
10720;BME280;5411;58.386;15.560;2023-07-31T06:20:11;99255.53;;;18.99;99.62
10720;BME280;5411;58.386;15.560;2023-07-31T06:22:41;99257.03;;;19.10;98.64
10720;BME280;5411;58.386;15.560;2023-07-31T06:25:10;99254.56;;;19.14;97.16
10720;BME280;5411;58.386;15.560;2023-07-31T06:27:41;99262.47;;;19.10;95.41
10720;BME280;5411;58.386;15.560;2023-07-31T06:30:10;99254.44;;;19.00;94.74
10720;BME280;5411;58.386;15.560;2023-07-31T06:32:39;99260.66;;;19.01;95.91
10720;BME280;5411;58.386;15.560;2023-07-31T06:35:08;99260.13;;;18.99;95.99
10720;BME280;5411;58.386;15.560;2023-07-31T06:37:38;99260.13;;;18.99;96.28
10720;BME280;5411;58.386;15.560;2023-07-31T06:40:10;99260.09;;;19.04;95.55
10720;BME280;5411;58.386;15.560;2023-07-31T06:42:39;99253.56;;;19.05;95.34
10720;BME280;5411;58.386;15.560;2023-07-31T06:45:08;99254.09;;;19.07;95.59
10720;BME280;5411;58.386;15.560;2023-07-31T06:47:39;99255.38;;;19.14;96.71
10720;BME280;5411;58.386;15.560;2023-07-31T06:50:08;99258.03;;;19.19;95.51
10720;BME280;5411;58.386;15.560;2023-07-31T06:52:38;99262.06;;;19.22;94.25
10720;BME280;5411;58.386;15.560;2023-07-31T06:55:16;99264.19;;;19.30;93.50
10720;BME280;5411;58.386;15.560;2023-07-31T06:57:45;99258.97;;;19.34;93.92
10720;BME280;5411;58.386;15.560;2023-07-31T07:00:15;99258.56;;;19.45;94.13
10720;BME280;5411;58.386;15.560;2023-07-31T07:02:44;99257.91;;;19.58;94.26
10720;BME280;5411;58.386;15.560;2023-07-31T07:05:14;99256.63;;;19.75;92.22
10720;BME280;5411;58.386;15.560;2023-07-31T07:07:45;99254.31;;;19.87;91.16
10720;BME280;5411;58.386;15.560;2023-07-31T07:10:13;99254.50;;;19.96;89.32
10720;BME280;5411;58.386;15.560;2023-07-31T07:12:41;99256.38;;;19.95;88.17
10720;BME280;5411;58.386;15.560;2023-07-31T07:15:10;99253.31;;;20.02;89.03
10720;BME280;5411;58.386;15.560;2023-07-31T07:17:39;99250.81;;;20.05;90.47
10720;BME280;5411;58.386;15.560;2023-07-31T07:20:08;99256.25;;;20.05;88.36
10720;BME280;5411;58.386;15.560;2023-07-31T07:22:36;99251.34;;;20.07;87.48
10720;BME280;5411;58.386;15.560;2023-07-31T07:25:07;99257.28;;;20.09;87.94
10720;BME280;5411;58.386;15.560;2023-07-31T07:27:36;99258.09;;;20.10;86.94
10720;BME280;5411;58.386;15.560;2023-07-31T07:30:06;99253.03;;;20.22;87.61
10720;BME280;5411;58.386;15.560;2023-07-31T07:32:34;99255.88;;;20.31;87.11
10720;BME280;5411;58.386;15.560;2023-07-31T07:35:06;99254.44;;;20.38;86.84
10720;BME280;5411;58.386;15.560;2023-07-31T07:37:35;99259.94;;;20.52;85.87
10720;BME280;5411;58.386;15.560;2023-07-31T07:40:04;99251.94;;;20.60;85.27
10720;BME280;5411;58.386;15.560;2023-07-31T07:42:36;99263.81;;;20.64;84.57
10720;BME280;5411;58.386;15.560;2023-07-31T07:45:05;99254.66;;;20.60;82.85
10720;BME280;5411;58.386;15.560;2023-07-31T07:47:34;99258.38;;;20.64;82.94
10720;BME280;5411;58.386;15.560;2023-07-31T07:50:05;99255.38;;;20.66;82.62
10720;BME280;5411;58.386;15.560;2023-07-31T07:52:35;99259.13;;;20.70;83.09
10720;BME280;5411;58.386;15.560;2023-07-31T07:55:05;99257.13;;;20.76;83.11
10720;BME280;5411;58.386;15.560;2023-07-31T07:57:33;99266.91;;;20.77;81.30
10720;BME280;5411;58.386;15.560;2023-07-31T08:00:08;99266.22;;;20.85;77.62
10720;BME280;5411;58.386;15.560;2023-07-31T08:02:37;99268.66;;;20.86;77.14
10720;BME280;5411;58.386;15.560;2023-07-31T08:05:09;99272.19;;;20.87;76.62
10720;BME280;5411;58.386;15.560;2023-07-31T08:07:37;99263.28;;;20.81;76.62
10720;BME280;5411;58.386;15.560;2023-07-31T08:10:06;99256.44;;;20.84;76.92
10720;BME280;5411;58.386;15.560;2023-07-31T08:12:35;99257.47;;;20.88;78.44
10720;BME280;5411;58.386;15.560;2023-07-31T08:15:06;99254.56;;;20.98;78.64
10720;BME280;5411;58.386;15.560;2023-07-31T08:17:34;99252.47;;;21.09;78.20
10720;BME280;5411;58.386;15.560;2023-07-31T08:20:04;99255.63;;;21.16;78.09
10720;BME280;5411;58.386;15.560;2023-07-31T08:22:33;99249.91;;;21.31;78.14
10720;BME280;5411;58.386;15.560;2023-07-31T08:25:03;99252.25;;;21.38;75.75
10720;BME280;5411;58.386;15.560;2023-07-31T08:27:32;99246.00;;;21.51;75.80
10720;BME280;5411;58.386;15.560;2023-07-31T08:30:01;99249.94;;;21.72;75.06
10720;BME280;5411;58.386;15.560;2023-07-31T08:32:33;99240.66;;;21.73;73.74
10720;BME280;5411;58.386;15.560;2023-07-31T08:35:09;99245.91;;;21.69;73.72
10720;BME280;5411;58.386;15.560;2023-07-31T08:37:38;99243.00;;;21.66;73.53
10720;BME280;5411;58.386;15.560;2023-07-31T08:40:07;99245.72;;;21.66;73.41
10720;BME280;5411;58.386;15.560;2023-07-31T08:42:43;99236.13;;;21.82;73.66
10720;BME280;5411;58.386;15.560;2023-07-31T08:45:14;99242.97;;;21.93;73.46
10720;BME280;5411;58.386;15.560;2023-07-31T08:47:49;99245.38;;;21.95;70.63
10720;BME280;5411;58.386;15.560;2023-07-31T08:50:20;99237.53;;;21.93;69.11
10720;BME280;5411;58.386;15.560;2023-07-31T08:52:51;99226.84;;;21.83;70.40
10720;BME280;5411;58.386;15.560;2023-07-31T08:55:24;99233.09;;;21.84;69.74
10720;BME280;5411;58.386;15.560;2023-07-31T08:57:54;99230.56;;;21.87;68.98
10720;BME280;5411;58.386;15.560;2023-07-31T09:00:25;99225.22;;;21.96;69.59
10720;BME280;5411;58.386;15.560;2023-07-31T09:02:57;99221.28;;;22.02;70.69
10720;BME280;5411;58.386;15.560;2023-07-31T09:05:30;99229.22;;;22.12;68.41
10720;BME280;5411;58.386;15.560;2023-07-31T09:07:58;99224.03;;;22.24;69.46
10720;BME280;5411;58.386;15.560;2023-07-31T09:10:28;99224.13;;;22.33;66.95
10720;BME280;5411;58.386;15.560;2023-07-31T09:12:57;99223.50;;;22.58;66.20
10720;BME280;5411;58.386;15.560;2023-07-31T09:15:27;99222.66;;;22.71;67.76
10720;BME280;5411;58.386;15.560;2023-07-31T09:18:07;99215.56;;;22.93;66.80
10720;BME280;5411;58.386;15.560;2023-07-31T09:20:37;99213.88;;;23.05;65.16
10720;BME280;5411;58.386;15.560;2023-07-31T09:23:08;99217.50;;;23.23;62.51
10720;BME280;5411;58.386;15.560;2023-07-31T09:25:38;99212.88;;;23.32;60.66
10720;BME280;5411;58.386;15.560;2023-07-31T09:28:08;99213.25;;;23.39;60.47
10720;BME280;5411;58.386;15.560;2023-07-31T09:30:55;99205.38;;;23.46;58.67
10720;BME280;5411;58.386;15.560;2023-07-31T09:33:25;99203.34;;;23.52;60.71
10720;BME280;5411;58.386;15.560;2023-07-31T09:35:53;99204.50;;;23.60;61.56
10720;BME280;5411;58.386;15.560;2023-07-31T09:38:22;99199.19;;;23.63;58.71
10720;BME280;5411;58.386;15.560;2023-07-31T09:40:50;99193.88;;;23.58;60.19
10720;BME280;5411;58.386;15.560;2023-07-31T09:43:21;99194.94;;;23.40;60.15
10720;BME280;5411;58.386;15.560;2023-07-31T09:45:55;99196.19;;;23.34;60.59
10720;BME280;5411;58.386;15.560;2023-07-31T09:48:28;99205.97;;;23.26;59.71
10720;BME280;5411;58.386;15.560;2023-07-31T09:51:04;99196.28;;;23.20;60.34
10720;BME280;5411;58.386;15.560;2023-07-31T09:53:33;99197.28;;;23.24;58.35
10720;BME280;5411;58.386;15.560;2023-07-31T09:56:02;99201.22;;;23.09;59.96
10720;BME280;5411;58.386;15.560;2023-07-31T09:58:32;99199.19;;;22.93;60.94
10720;BME280;5411;58.386;15.560;2023-07-31T10:01:05;99199.09;;;22.75;61.48
10720;BME280;5411;58.386;15.560;2023-07-31T10:03:37;99182.66;;;22.67;63.15
10720;BME280;5411;58.386;15.560;2023-07-31T10:06:09;99188.75;;;22.86;62.36
10720;BME280;5411;58.386;15.560;2023-07-31T10:08:38;99189.63;;;23.04;62.92
10720;BME280;5411;58.386;15.560;2023-07-31T10:11:16;99181.69;;;23.25;60.79
10720;BME280;5411;58.386;15.560;2023-07-31T10:13:50;99179.69;;;23.48;60.12
10720;BME280;5411;58.386;15.560;2023-07-31T10:16:20;99179.19;;;23.37;58.18
10720;BME280;5411;58.386;15.560;2023-07-31T10:18:51;99181.13;;;23.45;58.62
10720;BME280;5411;58.386;15.560;2023-07-31T10:21:23;99178.28;;;23.59;59.13
10720;BME280;5411;58.386;15.560;2023-07-31T10:23:55;99172.06;;;23.67;57.88
10720;BME280;5411;58.386;15.560;2023-07-31T10:26:25;99177.03;;;23.73;57.05
10720;BME280;5411;58.386;15.560;2023-07-31T10:28:54;99172.19;;;23.62;56.69
10720;BME280;5411;58.386;15.560;2023-07-31T10:31:23;99167.06;;;23.60;57.50
10720;BME280;5411;58.386;15.560;2023-07-31T10:33:54;99167.16;;;23.46;60.61
10720;BME280;5411;58.386;15.560;2023-07-31T10:36:24;99166.47;;;23.32;62.51
10720;BME280;5411;58.386;15.560;2023-07-31T10:38:55;99169.28;;;23.10;63.98
10720;BME280;5411;58.386;15.560;2023-07-31T10:41:29;99163.72;;;22.93;65.58
10720;BME280;5411;58.386;15.560;2023-07-31T10:44:00;99168.22;;;22.89;62.66
10720;BME280;5411;58.386;15.560;2023-07-31T10:46:28;99163.88;;;22.88;65.39
10720;BME280;5411;58.386;15.560;2023-07-31T10:49:03;99159.88;;;22.94;67.25
10720;BME280;5411;58.386;15.560;2023-07-31T10:51:35;99156.09;;;23.03;67.42
10720;BME280;5411;58.386;15.560;2023-07-31T10:54:11;99162.53;;;23.07;66.75
10720;BME280;5411;58.386;15.560;2023-07-31T10:56:40;99153.38;;;23.03;66.46
10720;BME280;5411;58.386;15.560;2023-07-31T10:59:08;99157.47;;;22.92;65.71
10720;BME280;5411;58.386;15.560;2023-07-31T11:01:53;99159.16;;;23.10;67.80
10720;BME280;5411;58.386;15.560;2023-07-31T11:04:26;99155.38;;;23.29;67.05
10720;BME280;5411;58.386;15.560;2023-07-31T11:06:56;99153.47;;;23.38;63.36
10720;BME280;5411;58.386;15.560;2023-07-31T11:09:27;99146.00;;;23.52;65.32
10720;BME280;5411;58.386;15.560;2023-07-31T11:11:57;99143.63;;;23.68;62.24
10720;BME280;5411;58.386;15.560;2023-07-31T11:14:26;99151.66;;;23.73;56.69
10720;BME280;5411;58.386;15.560;2023-07-31T11:16:55;99149.41;;;23.75;56.97
10720;BME280;5411;58.386;15.560;2023-07-31T11:19:25;99139.94;;;23.81;56.85
10720;BME280;5411;58.386;15.560;2023-07-31T11:21:55;99150.22;;;23.67;56.21
10720;BME280;5411;58.386;15.560;2023-07-31T11:24:24;99149.72;;;23.56;54.86
10720;BME280;5411;58.386;15.560;2023-07-31T11:26:53;99135.16;;;23.30;56.96
10720;BME280;5411;58.386;15.560;2023-07-31T11:29:27;99139.13;;;23.15;57.87
10720;BME280;5411;58.386;15.560;2023-07-31T11:31:55;99130.41;;;23.04;60.43
10720;BME280;5411;58.386;15.560;2023-07-31T11:34:25;99134.13;;;23.08;61.21
10720;BME280;5411;58.386;15.560;2023-07-31T11:36:54;99140.41;;;23.18;58.95
10720;BME280;5411;58.386;15.560;2023-07-31T11:39:23;99135.16;;;23.30;58.06
10720;BME280;5411;58.386;15.560;2023-07-31T11:41:51;99133.66;;;23.63;54.13
10720;BME280;5411;58.386;15.560;2023-07-31T11:44:19;99131.72;;;23.98;54.83
10720;BME280;5411;58.386;15.560;2023-07-31T11:46:56;99122.25;;;24.30;55.29
10720;BME280;5411;58.386;15.560;2023-07-31T11:49:27;99114.53;;;24.49;53.72
10720;BME280;5411;58.386;15.560;2023-07-31T11:51:55;99123.91;;;24.78;55.38
10720;BME280;5411;58.386;15.560;2023-07-31T11:54:24;99128.63;;;24.69;52.77
10720;BME280;5411;58.386;15.560;2023-07-31T11:56:53;99117.22;;;24.58;52.52
10720;BME280;5411;58.386;15.560;2023-07-31T11:59:21;99129.66;;;24.47;52.06
10720;BME280;5411;58.386;15.560;2023-07-31T12:01:50;99119.03;;;24.37;51.68
10720;BME280;5411;58.386;15.560;2023-07-31T12:04:20;99116.47;;;24.32;52.57
10720;BME280;5411;58.386;15.560;2023-07-31T12:06:52;99118.72;;;24.21;53.56
10720;BME280;5411;58.386;15.560;2023-07-31T12:09:24;99124.03;;;24.17;54.12
10720;BME280;5411;58.386;15.560;2023-07-31T12:11:53;99126.28;;;24.15;52.40
10720;BME280;5411;58.386;15.560;2023-07-31T12:14:27;99124.50;;;24.11;50.37
10720;BME280;5411;58.386;15.560;2023-07-31T12:17:14;99128.50;;;24.13;51.70
10720;BME280;5411;58.386;15.560;2023-07-31T12:19:43;99129.00;;;24.24;52.77
10720;BME280;5411;58.386;15.560;2023-07-31T12:22:15;99118.44;;;24.23;52.60
10720;BME280;5411;58.386;15.560;2023-07-31T12:24:50;99118.44;;;24.23;54.18
10720;BME280;5411;58.386;15.560;2023-07-31T12:27:45;99114.22;;;24.34;53.79
10720;BME280;5411;58.386;15.560;2023-07-31T12:30:26;99103.22;;;24.60;54.40
10720;BME280;5411;58.386;15.560;2023-07-31T12:32:57;99108.03;;;24.63;49.60
10720;BME280;5411;58.386;15.560;2023-07-31T12:35:34;99113.03;;;24.52;51.12
10720;BME280;5411;58.386;15.560;2023-07-31T12:38:04;99104.50;;;24.54;50.75
10720;BME280;5411;58.386;15.560;2023-07-31T12:40:33;99110.31;;;24.52;49.89
10720;BME280;5411;58.386;15.560;2023-07-31T12:43:01;99110.63;;;24.50;51.96
10720;BME280;5411;58.386;15.560;2023-07-31T12:45:32;99112.09;;;24.48;50.03
10720;BME280;5411;58.386;15.560;2023-07-31T12:48:01;99103.59;;;24.49;49.96
10720;BME280;5411;58.386;15.560;2023-07-31T12:50:31;99096.19;;;24.50;50.37
10720;BME280;5411;58.386;15.560;2023-07-31T12:53:14;99100.81;;;24.58;51.22
10720;BME280;5411;58.386;15.560;2023-07-31T12:55:43;99105.44;;;24.66;50.65
10720;BME280;5411;58.386;15.560;2023-07-31T12:58:12;99099.00;;;24.71;49.05
10720;BME280;5411;58.386;15.560;2023-07-31T13:00:41;99100.94;;;24.70;49.50
10720;BME280;5411;58.386;15.560;2023-07-31T13:03:09;99094.50;;;24.66;48.56
10720;BME280;5411;58.386;15.560;2023-07-31T13:05:39;99090.34;;;24.60;50.00
10720;BME280;5411;58.386;15.560;2023-07-31T13:08:08;99091.00;;;24.57;50.51
10720;BME280;5411;58.386;15.560;2023-07-31T13:10:38;99086.31;;;24.58;50.59
10720;BME280;5411;58.386;15.560;2023-07-31T13:13:09;99076.66;;;24.60;51.75